Collbran, Colorado
Current Conditions -  °F | °C
As of 7:53 PM on Monday 20 Oct 2014 (Local Time) from KRIL Reporting Station
Few Clouds Few Clouds  
Wind Chill: 55°   Ceiling: Unl
Heat Index: 55°   Visibility: 10mi
Dew Point: 38°   Wind: 9mph
Humidity: 53%   Direction: 140°SE
Pressure: 30.08"   Gusts: NA
Location:  39.24°N, 107.96°W
Report Text: KRIL 210153Z AUTO 14008KT 10SM FEW110 13/03 A3008 RMK AO2 RAE00 SLP164 P0000 T01280033
Loading
Personal Weather Stations






























Interactive Weather Map
Tropical Storm Tracking
New forecast layout! Learn more

10-Day Weather Forecast

Advertisements
Track Severe Weather on mobile